KVAD/VAD METAR and TAF weather

Enter ICAO airport designator
Station Type Date Time Source
KVAD METAR 2022/01/26 06:56 UTC NOAA

KVAD 260656Z AUTO 00000KT 10SM OVC055 09/08 A3006 RMK AO2 SLP182 T00920080 $


Station Type Date Time Source
KVAD Decoded METAR 2022/01/26 06:56 UTC NOAA

Moody Air Force Base, GA, United States (KVAD) 30-58N 083-12W 71M
Jan 26, 2022 - 01:56 AM EST / 2022.01.26 0656 UTC
Wind: Calm:0
Visibility: 10 mile(s):0
Sky conditions: overcast
Temperature: 48.6 F (9.2 C)
Dew Point: 46.4 F (8.0 C)
Relative Humidity: 92%
Pressure (altimeter): 30.06 in. Hg (1017 hPa)
ob: KVAD 260656Z AUTO 00000KT 10SM OVC055 09/08 A3006 RMK AO2 SLP182 T00920080
cycle: 7

Station Type Date Time Source
KVAD TAF 2022/01/26 01:06 UTC NOAA

TAF KVAD 260100Z 2601/2707 03003KT 9000 -RA OVC035 QNH3005INS
BECMG 2607/2608 03003KT 9999 NSW OVC035 QNH3006INS
BECMG 2616/2617 03012KT 9999 BKN025 QNH3014INS TX16/2621Z TN08/2613Z

Example: see airport list